Atlantic City International Airport
KACY : rendu visible

Aérodrome :











RETROUVEZ-NOUS SUR...

 
LOGIN :

S'inscrire | Disclaimer

   EN    FR    IT 

 









Légende :    VFR   VFR Marginal   IFR   IFR Intensif   IFR Très Intensif
Visi : 
Plafond : 
>= 8 km
>= 3000ft
5 à 8 km
1000 à 3000 ft
1500m à 5 km
500 à 1000 ft
800 à 1500m
200 à 500 ft
< 800m
< 200 ft
Symboles :   Orages  Brouillard  Fortes neiges  Fortes précipitations  Vent > 20 kt






- Altitude de l'aérodrome : 75 ft
- Code IATA : ACY


KACY - Atlantic City International

DERNIER METAR :
  • 231854Z 32022G29KT 10SM CLR 11/01 A2998 RMK AO2 PK WND 31033/1801 SLP151 T01110011

METARs EXPIRÉS :
  • 231754Z 32023G33KT 10SM CLR 12/02 A2996 RMK AO2 PK WND 31033/1712 SLP145 60002 T01170017 10150 20106 58001
  • 231654Z 30021G35KT 10SM OVC032 11/04 A2996 RMK AO2 PK WND 30035/1648 SLP145 T01110044
  • 231637Z 32019G31KT 10SM OVC031 11/04 A2996 RMK AO2 PK WND 31031/1635 T01110044

TAF KACY
Valide du 23 à 18h jusqu'au 24 à 18h UTC


231730Z 2318/2418 32018G29KT P6SM FEW040
FM240000 31009KT P6SM SKC
FM241400 33010KT P6SM SKC
FIR KZDC / Amérique du Nord



MET'MAP, la Météo Aéronautique d'un coup d'oeil ! - Copyright ORBIFLY Décembre 2007 - Disclaimer

ORBIFLY MET'MAP TEAM :

Programmation & Développement : Alexandra Zaïnal
Sur une idée originale de : Baudouin d'Aumeries
Assistance à la programmation : Marc-Olivier Méhu
Soutien technique & logistique : Manuel Goepfert

Contact : metmap@orbifly.com




SOURCES & CREDITS :

   NOAA       Earth
Advisory